KAUO

Auburn University Regional Airport

Auburn, Alabama, USA
METAR KAUO 201156Z AUTO 00000KT 10SM OVC037 03/M04 A3029 RMK AO2 SLP281 T00281039 10028 21006 53003
Observed Flight Rules
Jan-20 @ 11:56 UTC (an hour ago) Visual Flight Rules
Wind Visibility Clouds
Calm 10 miles
  • Overcast at 3,700' AGL
Temperatures Readings
Current 3°C / 37°F
Dewpoint -4°C / 25°F
Humidity 60%
Altimeter 30.29" Hg
Pressure 1028.1 hPa
Elevation 236
METAR KAUO 201156Z AUTO 00000KT 10SM OVC037 03/M04 A3029 RMK AO2 SLP281 T00281039 10028 21006 53003
Observed Flight Rules
Jan-20 @ 11:56 UTC
(an hour ago)
VFR
Wind Visibility
Calm 10 miles
Clouds
  • Overcast at 3,700' AGL
Temperature Dewpoint
3°C / 37°F -4°C / 25°F
Humidity Altimeter Pressure
60% 30.29" Hg 1028.1 hPa